sensor_id;sensor_type;location;lat;lon;timestamp;pressure;altitude;pressure_sealevel;temperature;humidity
5522;BME280;2783;48.730;8.006;2023-03-22T00:01:15;99941.69;;;12.68;85.43
5522;BME280;2783;48.730;8.006;2023-03-22T00:03:41;99932.72;;;12.69;84.89
5522;BME280;2783;48.730;8.006;2023-03-22T00:06:07;99930.13;;;12.67;85.02
5522;BME280;2783;48.730;8.006;2023-03-22T00:08:32;99939.22;;;12.63;85.22
5522;BME280;2783;48.730;8.006;2023-03-22T00:10:57;99929.78;;;12.55;85.45
5522;BME280;2783;48.730;8.006;2023-03-22T00:13:23;99926.44;;;12.50;85.89
5522;BME280;2783;48.730;8.006;2023-03-22T00:15:48;99927.31;;;12.50;86.22
5522;BME280;2783;48.730;8.006;2023-03-22T00:18:14;99922.69;;;12.54;86.09
5522;BME280;2783;48.730;8.006;2023-03-22T00:20:49;99913.84;;;12.53;85.75
5522;BME280;2783;48.730;8.006;2023-03-22T00:23:15;99905.84;;;12.53;85.27
5522;BME280;2783;48.730;8.006;2023-03-22T00:25:41;99910.22;;;12.54;84.89
5522;BME280;2783;48.730;8.006;2023-03-22T00:28:07;99910.91;;;12.59;84.26
5522;BME280;2783;48.730;8.006;2023-03-22T00:30:32;99910.78;;;12.62;83.81
5522;BME280;2783;48.730;8.006;2023-03-22T00:32:57;99903.56;;;12.64;83.84
5522;BME280;2783;48.730;8.006;2023-03-22T00:35:23;99909.06;;;12.61;83.46
5522;BME280;2783;48.730;8.006;2023-03-22T00:37:48;99907.25;;;12.62;83.26
5522;BME280;2783;48.730;8.006;2023-03-22T00:40:15;99906.38;;;12.61;83.23
5522;BME280;2783;48.730;8.006;2023-03-22T00:42:41;99909.13;;;12.60;83.83
5522;BME280;2783;48.730;8.006;2023-03-22T00:45:07;99911.13;;;12.55;84.00
5522;BME280;2783;48.730;8.006;2023-03-22T00:47:33;99903.31;;;12.50;84.06
5522;BME280;2783;48.730;8.006;2023-03-22T00:49:58;99900.88;;;12.44;84.75
5522;BME280;2783;48.730;8.006;2023-03-22T00:52:23;99887.81;;;12.38;84.22
5522;BME280;2783;48.730;8.006;2023-03-22T00:54:49;99886.31;;;12.31;85.05
5522;BME280;2783;48.730;8.006;2023-03-22T00:57:15;99889.38;;;12.22;84.88
5522;BME280;2783;48.730;8.006;2023-03-22T00:59:41;99886.13;;;12.14;85.99
5522;BME280;2783;48.730;8.006;2023-03-22T01:02:07;99882.91;;;12.06;86.00
5522;BME280;2783;48.730;8.006;2023-03-22T01:04:33;99883.88;;;12.05;86.29
5522;BME280;2783;48.730;8.006;2023-03-22T01:06:59;99876.06;;;12.01;86.42
5522;BME280;2783;48.730;8.006;2023-03-22T01:09:27;99878.09;;;11.94;86.74
5522;BME280;2783;48.730;8.006;2023-03-22T01:11:55;99879.28;;;11.87;87.40
5522;BME280;2783;48.730;8.006;2023-03-22T01:14:21;99876.75;;;11.84;87.83
5522;BME280;2783;48.730;8.006;2023-03-22T01:16:46;99868.06;;;11.79;87.53
5522;BME280;2783;48.730;8.006;2023-03-22T01:19:11;99866.31;;;11.78;87.57
5522;BME280;2783;48.730;8.006;2023-03-22T01:21:36;99861.91;;;11.77;87.49
5522;BME280;2783;48.730;8.006;2023-03-22T01:24:02;99860.06;;;11.79;87.67
5522;BME280;2783;48.730;8.006;2023-03-22T01:26:27;99856.66;;;11.75;87.28
5522;BME280;2783;48.730;8.006;2023-03-22T01:28:52;99851.44;;;11.72;87.46
5522;BME280;2783;48.730;8.006;2023-03-22T01:31:18;99845.56;;;11.64;88.12
5522;BME280;2783;48.730;8.006;2023-03-22T01:33:43;99842.00;;;11.64;88.33
5522;BME280;2783;48.730;8.006;2023-03-22T01:36:08;99841.94;;;11.65;87.79
5522;BME280;2783;48.730;8.006;2023-03-22T01:38:34;99845.50;;;11.66;87.62
5522;BME280;2783;48.730;8.006;2023-03-22T01:40:59;99847.34;;;11.64;87.83
5522;BME280;2783;48.730;8.006;2023-03-22T01:43:24;99843.84;;;11.62;88.80
5522;BME280;2783;48.730;8.006;2023-03-22T01:45:50;99837.59;;;11.63;88.09
5522;BME280;2783;48.730;8.006;2023-03-22T01:48:17;99839.34;;;11.64;88.24
5522;BME280;2783;48.730;8.006;2023-03-22T01:50:48;99837.59;;;11.63;88.39
5522;BME280;2783;48.730;8.006;2023-03-22T01:53:20;99844.78;;;11.61;88.39
5522;BME280;2783;48.730;8.006;2023-03-22T01:55:47;99839.56;;;11.58;87.70
5522;BME280;2783;48.730;8.006;2023-03-22T01:58:14;99843.22;;;11.55;88.44
5522;BME280;2783;48.730;8.006;2023-03-22T02:00:42;99840.59;;;11.54;87.90
5522;BME280;2783;48.730;8.006;2023-03-22T02:03:07;99845.88;;;11.55;88.66
5522;BME280;2783;48.730;8.006;2023-03-22T02:05:33;99840.47;;;11.57;88.54
5522;BME280;2783;48.730;8.006;2023-03-22T02:07:59;99842.31;;;11.55;88.17
5522;BME280;2783;48.730;8.006;2023-03-22T02:10:25;99833.44;;;11.56;89.04
5522;BME280;2783;48.730;8.006;2023-03-22T02:20:41;99830.84;;;11.54;88.43
5522;BME280;2783;48.730;8.006;2023-03-22T02:36:19;99832.13;;;11.44;87.97
5522;BME280;2783;48.730;8.006;2023-03-22T02:41:17;99836.00;;;11.36;88.07
5522;BME280;2783;48.730;8.006;2023-03-22T02:46:28;99832.50;;;11.34;88.44
5522;BME280;2783;48.730;8.006;2023-03-22T02:51:45;99834.38;;;11.32;88.32
5522;BME280;2783;48.730;8.006;2023-03-22T02:54:10;99837.16;;;11.29;88.60
5522;BME280;2783;48.730;8.006;2023-03-22T02:59:05;99826.81;;;11.21;87.57
5522;BME280;2783;48.730;8.006;2023-03-22T03:01:34;99825.94;;;11.21;87.46
5522;BME280;2783;48.730;8.006;2023-03-22T03:04:01;99824.22;;;11.20;87.24
5522;BME280;2783;48.730;8.006;2023-03-22T03:06:31;99818.88;;;11.20;87.28
5522;BME280;2783;48.730;8.006;2023-03-22T03:08:57;99816.16;;;11.21;87.61
5522;BME280;2783;48.730;8.006;2023-03-22T03:11:29;99818.75;;;11.23;86.56
5522;BME280;2783;48.730;8.006;2023-03-22T03:13:55;99822.34;;;11.22;87.02
5522;BME280;2783;48.730;8.006;2023-03-22T03:16:20;99816.91;;;11.25;87.00
5522;BME280;2783;48.730;8.006;2023-03-22T03:18:51;99823.28;;;11.21;87.30
5522;BME280;2783;48.730;8.006;2023-03-22T03:26:42;99817.56;;;11.08;87.46
5522;BME280;2783;48.730;8.006;2023-03-22T03:29:18;99825.66;;;11.05;86.60
5522;BME280;2783;48.730;8.006;2023-03-22T03:34:22;99830.56;;;10.93;87.29
5522;BME280;2783;48.730;8.006;2023-03-22T03:36:54;99834.31;;;10.87;87.46
5522;BME280;2783;48.730;8.006;2023-03-22T03:39:21;99834.47;;;10.83;87.92
5522;BME280;2783;48.730;8.006;2023-03-22T03:41:48;99838.06;;;10.82;88.42
5522;BME280;2783;48.730;8.006;2023-03-22T03:44:15;99841.09;;;10.71;88.30
5522;BME280;2783;48.730;8.006;2023-03-22T03:46:40;99840.34;;;10.68;89.34
5522;BME280;2783;48.730;8.006;2023-03-22T03:49:06;99838.84;;;10.60;90.00
5522;BME280;2783;48.730;8.006;2023-03-22T03:51:32;99843.34;;;10.58;90.54
5522;BME280;2783;48.730;8.006;2023-03-22T03:53:58;99846.81;;;10.60;90.40
5522;BME280;2783;48.730;8.006;2023-03-22T03:56:23;99838.84;;;10.60;90.44
5522;BME280;2783;48.730;8.006;2023-03-22T03:58:48;99838.72;;;10.63;90.21
5522;BME280;2783;48.730;8.006;2023-03-22T04:01:13;99839.50;;;10.67;90.26
5522;BME280;2783;48.730;8.006;2023-03-22T04:03:40;99838.50;;;10.70;90.53
5522;BME280;2783;48.730;8.006;2023-03-22T04:06:05;99838.50;;;10.70;91.13
5522;BME280;2783;48.730;8.006;2023-03-22T04:08:32;99834.81;;;10.74;89.95
5522;BME280;2783;48.730;8.006;2023-03-22T04:10:58;99834.00;;;10.72;90.43
5522;BME280;2783;48.730;8.006;2023-03-22T04:13:23;99827.97;;;10.67;90.59
5522;BME280;2783;48.730;8.006;2023-03-22T04:15:52;99827.16;;;10.64;90.09
5522;BME280;2783;48.730;8.006;2023-03-22T04:18:18;99827.38;;;10.58;90.34
5522;BME280;2783;48.730;8.006;2023-03-22T04:20:44;99825.59;;;10.59;91.43
5522;BME280;2783;48.730;8.006;2023-03-22T04:23:10;99824.72;;;10.58;90.43
5522;BME280;2783;48.730;8.006;2023-03-22T04:25:35;99821.34;;;10.53;90.76
5522;BME280;2783;48.730;8.006;2023-03-22T04:28:02;99829.44;;;10.50;91.68
5522;BME280;2783;48.730;8.006;2023-03-22T04:30:28;99820.59;;;10.50;91.83
5522;BME280;2783;48.730;8.006;2023-03-22T04:32:54;99820.59;;;10.50;91.62
5522;BME280;2783;48.730;8.006;2023-03-22T04:35:20;99815.34;;;10.48;91.55
5522;BME280;2783;48.730;8.006;2023-03-22T04:37:45;99811.03;;;10.44;91.50
5522;BME280;2783;48.730;8.006;2023-03-22T04:40:13;99810.19;;;10.44;92.47
5522;BME280;2783;48.730;8.006;2023-03-22T04:42:40;99808.44;;;10.43;91.93
5522;BME280;2783;48.730;8.006;2023-03-22T04:45:06;99802.22;;;10.44;91.86
5522;BME280;2783;48.730;8.006;2023-03-22T04:47:31;99799.44;;;10.47;92.04
5522;BME280;2783;48.730;8.006;2023-03-22T04:49:56;99802.97;;;10.47;91.84
5522;BME280;2783;48.730;8.006;2023-03-22T04:52:22;99805.72;;;10.44;92.50
5522;BME280;2783;48.730;8.006;2023-03-22T04:54:47;99804.03;;;10.42;92.36
5522;BME280;2783;48.730;8.006;2023-03-22T04:57:12;99803.88;;;10.46;91.48
5522;BME280;2783;48.730;8.006;2023-03-22T04:59:37;99799.50;;;10.45;91.38
5522;BME280;2783;48.730;8.006;2023-03-22T05:02:03;99801.22;;;10.46;91.23
5522;BME280;2783;48.730;8.006;2023-03-22T05:04:28;99796.94;;;10.42;92.02
5522;BME280;2783;48.730;8.006;2023-03-22T05:06:53;99795.19;;;10.41;91.75
5522;BME280;2783;48.730;8.006;2023-03-22T05:09:18;99800.50;;;10.41;91.53
5522;BME280;2783;48.730;8.006;2023-03-22T05:11:44;99798.78;;;10.40;91.74
5522;BME280;2783;48.730;8.006;2023-03-22T05:14:09;99797.16;;;10.36;91.34
5522;BME280;2783;48.730;8.006;2023-03-22T05:16:35;99804.41;;;10.31;91.45
5522;BME280;2783;48.730;8.006;2023-03-22T05:19:00;99805.22;;;10.33;92.31
5522;BME280;2783;48.730;8.006;2023-03-22T05:21:26;99811.38;;;10.35;91.14
5522;BME280;2783;48.730;8.006;2023-03-22T05:23:55;99804.41;;;10.31;91.19
5522;BME280;2783;48.730;8.006;2023-03-22T05:26:21;99803.69;;;10.28;91.43
5522;BME280;2783;48.730;8.006;2023-03-22T05:28:49;99802.81;;;10.27;92.01
5522;BME280;2783;48.730;8.006;2023-03-22T05:31:15;99812.66;;;10.24;91.52
5522;BME280;2783;48.730;8.006;2023-03-22T05:33:41;99814.56;;;10.20;92.18
5522;BME280;2783;48.730;8.006;2023-03-22T05:36:07;99815.44;;;10.21;91.93
5522;BME280;2783;48.730;8.006;2023-03-22T05:38:32;99820.69;;;10.22;91.64
5522;BME280;2783;48.730;8.006;2023-03-22T05:40:58;99818.94;;;10.21;91.58
5522;BME280;2783;48.730;8.006;2023-03-22T05:43:23;99831.44;;;10.19;91.34
5522;BME280;2783;48.730;8.006;2023-03-22T05:45:48;99814.56;;;10.20;92.54
5522;BME280;2783;48.730;8.006;2023-03-22T05:48:15;99821.56;;;10.23;91.64
5522;BME280;2783;48.730;8.006;2023-03-22T05:50:40;99812.56;;;10.27;92.09
5522;BME280;2783;48.730;8.006;2023-03-22T05:53:06;99821.19;;;10.33;91.67
5522;BME280;2783;48.730;8.006;2023-03-22T05:55:31;99816.47;;;10.41;90.97
5522;BME280;2783;48.730;8.006;2023-03-22T05:57:57;99816.16;;;10.50;90.68
5522;BME280;2783;48.730;8.006;2023-03-22T06:00:22;99818.59;;;10.56;89.83
5522;BME280;2783;48.730;8.006;2023-03-22T06:02:48;99816.63;;;10.61;89.74
5522;BME280;2783;48.730;8.006;2023-03-22T06:05:14;99819.63;;;10.77;90.72
5522;BME280;2783;48.730;8.006;2023-03-22T06:07:40;99824.78;;;11.05;89.96
5522;BME280;2783;48.730;8.006;2023-03-22T06:10:06;99816.31;;;11.40;88.39
5522;BME280;2783;48.730;8.006;2023-03-22T06:12:32;99812.91;;;11.81;86.86
5522;BME280;2783;48.730;8.006;2023-03-22T06:14:57;99812.06;;;12.22;83.74
5522;BME280;2783;48.730;8.006;2023-03-22T06:17:23;99817.25;;;12.25;79.85
5522;BME280;2783;48.730;8.006;2023-03-22T06:19:48;99814.19;;;12.34;80.06
5522;BME280;2783;48.730;8.006;2023-03-22T06:22:14;99814.91;;;12.78;78.35
5522;BME280;2783;48.730;8.006;2023-03-22T06:24:40;99807.91;;;13.70;74.69
5522;BME280;2783;48.730;8.006;2023-03-22T06:27:06;99811.97;;;14.65;70.58
5522;BME280;2783;48.730;8.006;2023-03-22T06:29:32;99807.03;;;15.55;65.41
5522;BME280;2783;48.730;8.006;2023-03-22T06:31:57;99806.25;;;16.30;60.40
5522;BME280;2783;48.730;8.006;2023-03-22T06:34:22;99806.53;;;17.27;56.60
5522;BME280;2783;48.730;8.006;2023-03-22T06:36:48;99817.25;;;18.36;53.45
5522;BME280;2783;48.730;8.006;2023-03-22T06:39:13;99805.50;;;19.51;49.90
5522;BME280;2783;48.730;8.006;2023-03-22T06:41:38;99819.00;;;20.47;46.50
5522;BME280;2783;48.730;8.006;2023-03-22T06:44:04;99825.72;;;20.76;45.55
5522;BME280;2783;48.730;8.006;2023-03-22T06:46:29;99827.09;;;20.47;45.32
5522;BME280;2783;48.730;8.006;2023-03-22T06:48:54;99837.63;;;20.03;46.22
5522;BME280;2783;48.730;8.006;2023-03-22T06:51:20;99834.25;;;19.76;47.31
5522;BME280;2783;48.730;8.006;2023-03-22T06:53:45;99834.72;;;19.70;47.12
5522;BME280;2783;48.730;8.006;2023-03-22T06:56:10;99832.75;;;20.21;46.50
5522;BME280;2783;48.730;8.006;2023-03-22T06:58:36;99837.03;;;20.23;45.94
5522;BME280;2783;48.730;8.006;2023-03-22T07:01:01;99844.00;;;18.91;48.43
5522;BME280;2783;48.730;8.006;2023-03-22T07:03:27;99841.69;;;18.06;50.49
5522;BME280;2783;48.730;8.006;2023-03-22T07:05:52;99852.00;;;16.58;54.32
5522;BME280;2783;48.730;8.006;2023-03-22T07:08:24;99844.91;;;15.65;61.15
5522;BME280;2783;48.730;8.006;2023-03-22T07:10:49;99843.59;;;16.64;58.75
5522;BME280;2783;48.730;8.006;2023-03-22T07:13:15;99838.78;;;17.41;55.94
5522;BME280;2783;48.730;8.006;2023-03-22T07:15:40;99836.50;;;18.57;53.43
5522;BME280;2783;48.730;8.006;2023-03-22T07:18:05;99832.03;;;19.70;48.41
5522;BME280;2783;48.730;8.006;2023-03-22T07:20:33;99842.19;;;20.73;46.57
5522;BME280;2783;48.730;8.006;2023-03-22T07:23:01;99840.63;;;21.28;44.41
5522;BME280;2783;48.730;8.006;2023-03-22T07:25:26;99840.63;;;21.61;44.16
5522;BME280;2783;48.730;8.006;2023-03-22T07:27:51;99831.81;;;21.81;43.21
5522;BME280;2783;48.730;8.006;2023-03-22T07:30:16;99828.78;;;22.17;42.93
5522;BME280;2783;48.730;8.006;2023-03-22T07:32:42;99834.59;;;22.44;41.97
5522;BME280;2783;48.730;8.006;2023-03-22T07:35:07;99837.56;;;22.41;42.04
5522;BME280;2783;48.730;8.006;2023-03-22T07:37:32;99840.09;;;22.11;41.96
5522;BME280;2783;48.730;8.006;2023-03-22T07:39:58;99845.47;;;21.79;43.20
5522;BME280;2783;48.730;8.006;2023-03-22T07:42:23;99847.31;;;22.33;42.68
5522;BME280;2783;48.730;8.006;2023-03-22T07:44:48;99839.25;;;23.05;41.65
5522;BME280;2783;48.730;8.006;2023-03-22T07:47:14;99837.88;;;23.62;40.43
5522;BME280;2783;48.730;8.006;2023-03-22T07:49:39;99850.13;;;22.85;41.01
5522;BME280;2783;48.730;8.006;2023-03-22T07:52:04;99845.13;;;22.69;41.87
5522;BME280;2783;48.730;8.006;2023-03-22T07:54:30;99843.66;;;22.65;41.79
5522;BME280;2783;48.730;8.006;2023-03-22T07:56:56;99845.22;;;22.36;42.30
5522;BME280;2783;48.730;8.006;2023-03-22T07:59:21;99847.88;;;22.47;42.74
5522;BME280;2783;48.730;8.006;2023-03-22T08:01:47;99848.97;;;22.67;42.98
5522;BME280;2783;48.730;8.006;2023-03-22T08:04:12;99846.41;;;22.54;42.24
5522;BME280;2783;48.730;8.006;2023-03-22T08:06:38;99846.03;;;22.05;43.39
5522;BME280;2783;48.730;8.006;2023-03-22T08:09:04;99840.31;;;22.30;42.76
5522;BME280;2783;48.730;8.006;2023-03-22T08:11:32;99830.38;;;22.51;42.35
5522;BME280;2783;48.730;8.006;2023-03-22T08:13:57;99833.63;;;22.45;42.21
5522;BME280;2783;48.730;8.006;2023-03-22T08:16:22;99838.53;;;22.83;42.16
5522;BME280;2783;48.730;8.006;2023-03-22T08:18:48;99840.63;;;22.79;42.43
5522;BME280;2783;48.730;8.006;2023-03-22T08:21:13;99837.13;;;22.25;42.76
5522;BME280;2783;48.730;8.006;2023-03-22T08:23:38;99828.69;;;21.74;42.78
5522;BME280;2783;48.730;8.006;2023-03-22T08:26:04;99833.97;;;21.32;43.62
5522;BME280;2783;48.730;8.006;2023-03-22T08:28:29;99829.44;;;20.86;44.78
5522;BME280;2783;48.730;8.006;2023-03-22T08:30:54;99838.03;;;20.80;45.29
5522;BME280;2783;48.730;8.006;2023-03-22T08:33:20;99837.91;;;20.47;45.95
5522;BME280;2783;48.730;8.006;2023-03-22T08:35:47;99835.44;;;20.08;46.27
5522;BME280;2783;48.730;8.006;2023-03-22T08:38:13;99827.63;;;20.52;46.30
5522;BME280;2783;48.730;8.006;2023-03-22T08:40:38;99830.03;;;20.79;45.41
5522;BME280;2783;48.730;8.006;2023-03-22T08:43:03;99830.63;;;20.71;45.97
5522;BME280;2783;48.730;8.006;2023-03-22T08:45:28;99826.47;;;20.78;46.55
5522;BME280;2783;48.730;8.006;2023-03-22T08:47:54;99826.13;;;20.48;46.81
5522;BME280;2783;48.730;8.006;2023-03-22T08:50:20;99831.22;;;20.17;46.83
5522;BME280;2783;48.730;8.006;2023-03-22T08:52:46;99824.16;;;20.50;47.70
5522;BME280;2783;48.730;8.006;2023-03-22T08:55:11;99815.59;;;20.67;46.17
5522;BME280;2783;48.730;8.006;2023-03-22T08:57:38;99816.16;;;20.83;46.61
5522;BME280;2783;48.730;8.006;2023-03-22T09:00:04;99815.69;;;20.55;46.76
5522;BME280;2783;48.730;8.006;2023-03-22T09:02:30;99812.09;;;20.89;46.76
5522;BME280;2783;48.730;8.006;2023-03-22T09:04:56;99772.22;;;21.37;45.74
5522;BME280;2783;48.730;8.006;2023-03-22T09:07:21;99802.00;;;21.92;44.51
5522;BME280;2783;48.730;8.006;2023-03-22T09:09:48;99798.31;;;22.25;44.02
5522;BME280;2783;48.730;8.006;2023-03-22T09:12:13;99800.88;;;22.89;42.49
5522;BME280;2783;48.730;8.006;2023-03-22T09:14:38;99800.16;;;23.08;41.79
5522;BME280;2783;48.730;8.006;2023-03-22T09:17:04;99793.72;;;23.29;41.11
5522;BME280;2783;48.730;8.006;2023-03-22T09:19:29;99788.53;;;23.87;41.88
5522;BME280;2783;48.730;8.006;2023-03-22T09:21:55;99790.78;;;23.82;40.45
5522;BME280;2783;48.730;8.006;2023-03-22T09:24:20;99780.69;;;23.54;41.29
5522;BME280;2783;48.730;8.006;2023-03-22T09:26:46;99783.16;;;24.06;40.59
5522;BME280;2783;48.730;8.006;2023-03-22T09:29:11;99780.72;;;23.63;40.71
5522;BME280;2783;48.730;8.006;2023-03-22T09:31:37;99775.59;;;23.79;41.01
5522;BME280;2783;48.730;8.006;2023-03-22T09:34:02;99779.41;;;23.58;40.86
5522;BME280;2783;48.730;8.006;2023-03-22T09:36:27;99776.16;;;23.64;40.60
5522;BME280;2783;48.730;8.006;2023-03-22T09:38:52;99780.00;;;23.61;40.67
5522;BME280;2783;48.730;8.006;2023-03-22T09:41:20;99774.56;;;24.10;39.86
5522;BME280;2783;48.730;8.006;2023-03-22T09:43:47;99774.88;;;24.36;39.23
5522;BME280;2783;48.730;8.006;2023-03-22T09:46:49;99768.88;;;24.32;40.68
5522;BME280;2783;48.730;8.006;2023-03-22T09:49:10;99761.28;;;24.36;40.59
5522;BME280;2783;48.730;8.006;2023-03-22T09:51:44;99756.97;;;24.24;40.29
5522;BME280;2783;48.730;8.006;2023-03-22T09:54:33;99754.25;;;24.62;39.40
5522;BME280;2783;48.730;8.006;2023-03-22T10:02:29;99760.38;;;25.02;38.26
5522;BME280;2783;48.730;8.006;2023-03-22T10:04:58;99749.66;;;24.91;38.38
5522;BME280;2783;48.730;8.006;2023-03-22T10:07:32;99755.59;;;25.23;38.75
5522;BME280;2783;48.730;8.006;2023-03-22T10:12:28;99750.50;;;25.01;37.90
5522;BME280;2783;48.730;8.006;2023-03-22T10:15:00;99747.63;;;25.12;38.32
5522;BME280;2783;48.730;8.006;2023-03-22T10:17:27;99745.56;;;25.24;38.53
5522;BME280;2783;48.730;8.006;2023-03-22T10:22:48;99739.22;;;24.01;40.05
5522;BME280;2783;48.730;8.006;2023-03-22T10:25:16;99725.94;;;24.17;39.14
5522;BME280;2783;48.730;8.006;2023-03-22T10:27:42;99716.75;;;24.75;38.78
5522;BME280;2783;48.730;8.006;2023-03-22T10:30:11;99719.59;;;24.83;37.21
5522;BME280;2783;48.730;8.006;2023-03-22T10:32:44;99724.31;;;24.81;38.37
5522;BME280;2783;48.730;8.006;2023-03-22T10:35:14;99725.03;;;24.83;37.30
5522;BME280;2783;48.730;8.006;2023-03-22T10:37:39;99719.06;;;24.70;38.43
5522;BME280;2783;48.730;8.006;2023-03-22T10:40:07;99720.13;;;24.96;36.96
5522;BME280;2783;48.730;8.006;2023-03-22T10:42:36;99714.38;;;25.72;36.71
5522;BME280;2783;48.730;8.006;2023-03-22T10:45:04;99718.88;;;25.27;36.81
5522;BME280;2783;48.730;8.006;2023-03-22T10:47:39;99715.28;;;24.90;37.13
5522;BME280;2783;48.730;8.006;2023-03-22T10:50:08;99708.03;;;24.52;37.96
5522;BME280;2783;48.730;8.006;2023-03-22T10:52:44;99709.91;;;24.42;37.16
5522;BME280;2783;48.730;8.006;2023-03-22T10:55:13;99704.88;;;24.57;38.31
5522;BME280;2783;48.730;8.006;2023-03-22T10:57:39;99697.78;;;24.93;38.43
5522;BME280;2783;48.730;8.006;2023-03-22T11:00:07;99703.88;;;24.77;37.16
5522;BME280;2783;48.730;8.006;2023-03-22T11:02:42;99709.50;;;25.12;37.94
5522;BME280;2783;48.730;8.006;2023-03-22T11:05:16;99702.31;;;25.11;36.24
5522;BME280;2783;48.730;8.006;2023-03-22T11:07:43;99695.63;;;25.33;37.49
5522;BME280;2783;48.730;8.006;2023-03-22T11:12:34;99692.09;;;25.77;36.44
5522;BME280;2783;48.730;8.006;2023-03-22T11:15:01;99685.59;;;25.87;35.76
5522;BME280;2783;48.730;8.006;2023-03-22T11:17:27;99688.03;;;26.08;35.86
5522;BME280;2783;48.730;8.006;2023-03-22T11:19:54;99693.84;;;25.95;36.33
5522;BME280;2783;48.730;8.006;2023-03-22T11:24:45;99682.91;;;26.23;35.25
5522;BME280;2783;48.730;8.006;2023-03-22T11:29:46;99687.00;;;25.10;35.34
5522;BME280;2783;48.730;8.006;2023-03-22T11:32:19;99681.28;;;25.40;36.02
5522;BME280;2783;48.730;8.006;2023-03-22T11:34:45;99681.00;;;25.88;35.84
5522;BME280;2783;48.730;8.006;2023-03-22T11:37:14;99679.66;;;25.74;36.66
5522;BME280;2783;48.730;8.006;2023-03-22T11:39:44;99677.34;;;25.79;35.48
5522;BME280;2783;48.730;8.006;2023-03-22T11:42:13;99668.00;;;26.00;35.01
5522;BME280;2783;48.730;8.006;2023-03-22T11:44:42;99668.63;;;26.29;35.65
5522;BME280;2783;48.730;8.006;2023-03-22T11:47:09;99656.81;;;26.89;34.71
5522;BME280;2783;48.730;8.006;2023-03-22T11:52:09;99671.06;;;26.75;34.46
5522;BME280;2783;48.730;8.006;2023-03-22T11:54:35;99662.88;;;26.75;35.17
5522;BME280;2783;48.730;8.006;2023-03-22T11:57:02;99665.63;;;26.75;34.01
5522;BME280;2783;48.730;8.006;2023-03-22T11:59:46;99660.63;;;26.53;34.70
5522;BME280;2783;48.730;8.006;2023-03-22T12:02:19;99653.66;;;25.98;35.33
5522;BME280;2783;48.730;8.006;2023-03-22T12:04:47;99657.56;;;25.50;36.96
5522;BME280;2783;48.730;8.006;2023-03-22T12:07:15;99653.25;;;25.30;36.49
5522;BME280;2783;48.730;8.006;2023-03-22T12:12:21;99634.56;;;24.62;37.21
5522;BME280;2783;48.730;8.006;2023-03-22T12:17:23;99627.69;;;25.41;36.16
5522;BME280;2783;48.730;8.006;2023-03-22T12:19:57;99620.03;;;25.71;36.02
5522;BME280;2783;48.730;8.006;2023-03-22T12:22:27;99621.94;;;26.75;35.61
5522;BME280;2783;48.730;8.006;2023-03-22T12:24:54;99612.56;;;26.52;34.07
5522;BME280;2783;48.730;8.006;2023-03-22T12:27:33;99603.84;;;26.23;34.65
5522;BME280;2783;48.730;8.006;2023-03-22T12:30:06;99611.47;;;26.02;35.37
5522;BME280;2783;48.730;8.006;2023-03-22T12:32:37;99607.00;;;26.01;35.78
5522;BME280;2783;48.730;8.006;2023-03-22T12:35:06;99611.16;;;26.48;35.69
5522;BME280;2783;48.730;8.006;2023-03-22T12:37:33;99603.34;;;26.27;34.80
5522;BME280;2783;48.730;8.006;2023-03-22T12:40:05;99598.28;;;26.32;35.65
5522;BME280;2783;48.730;8.006;2023-03-22T12:42:40;99593.66;;;26.33;35.33
5522;BME280;2783;48.730;8.006;2023-03-22T12:45:11;99587.38;;;26.32;35.06
5522;BME280;2783;48.730;8.006;2023-03-22T12:47:40;99593.81;;;26.06;34.85
5522;BME280;2783;48.730;8.006;2023-03-22T12:50:10;99586.28;;;25.90;35.57
5522;BME280;2783;48.730;8.006;2023-03-22T12:52:41;99581.41;;;25.76;35.20
5522;BME280;2783;48.730;8.006;2023-03-22T12:55:11;99582.34;;;25.49;35.67
5522;BME280;2783;48.730;8.006;2023-03-22T12:57:41;99576.66;;;24.89;36.46
5522;BME280;2783;48.730;8.006;2023-03-22T13:00:12;99569.16;;;24.63;36.98
5522;BME280;2783;48.730;8.006;2023-03-22T13:02:39;99570.66;;;24.39;37.52
5522;BME280;2783;48.730;8.006;2023-03-22T13:05:10;99568.00;;;24.10;38.04
5522;BME280;2783;48.730;8.006;2023-03-22T13:07:37;99558.88;;;23.83;38.10
5522;BME280;2783;48.730;8.006;2023-03-22T13:15:58;99543.59;;;23.53;39.85
5522;BME280;2783;48.730;8.006;2023-03-22T13:21:09;99540.59;;;23.66;39.44
5522;BME280;2783;48.730;8.006;2023-03-22T13:23:35;99534.59;;;23.72;38.46
5522;BME280;2783;48.730;8.006;2023-03-22T13:26:16;99528.84;;;23.84;38.17
5522;BME280;2783;48.730;8.006;2023-03-22T13:28:52;99531.09;;;23.89;37.14
5522;BME280;2783;48.730;8.006;2023-03-22T13:31:40;99529.13;;;24.10;37.05
5522;BME280;2783;48.730;8.006;2023-03-22T13:34:03;99531.50;;;24.96;36.84
5522;BME280;2783;48.730;8.006;2023-03-22T13:36:37;99521.06;;;25.36;34.13
5522;BME280;2783;48.730;8.006;2023-03-22T13:39:07;99515.78;;;25.69;33.28
5522;BME280;2783;48.730;8.006;2023-03-22T13:41:33;99517.53;;;25.08;32.01
5522;BME280;2783;48.730;8.006;2023-03-22T13:44:00;99516.41;;;25.01;33.62
5522;BME280;2783;48.730;8.006;2023-03-22T13:51:27;99509.34;;;24.54;34.14
5522;BME280;2783;48.730;8.006;2023-03-22T14:01:53;99494.66;;;23.91;34.09
5522;BME280;2783;48.730;8.006;2023-03-22T14:04:40;99495.53;;;23.92;34.63
5522;BME280;2783;48.730;8.006;2023-03-22T14:07:11;99497.50;;;24.09;34.24
5522;BME280;2783;48.730;8.006;2023-03-22T14:09:50;99497.34;;;24.47;33.29
5522;BME280;2783;48.730;8.006;2023-03-22T14:12:18;99490.00;;;24.57;33.46
5522;BME280;2783;48.730;8.006;2023-03-22T14:14:46;99491.47;;;24.51;33.13
5522;BME280;2783;48.730;8.006;2023-03-22T14:19:56;99490.44;;;24.25;33.31
5522;BME280;2783;48.730;8.006;2023-03-22T14:22:31;99482.63;;;24.13;33.63
5522;BME280;2783;48.730;8.006;2023-03-22T14:24:57;99483.09;;;24.35;35.73
5522;BME280;2783;48.730;8.006;2023-03-22T14:27:24;99479.81;;;24.32;34.49
5522;BME280;2783;48.730;8.006;2023-03-22T14:29:49;99479.81;;;24.32;33.95
5522;BME280;2783;48.730;8.006;2023-03-22T14:34:43;99472.81;;;24.66;32.92
5522;BME280;2783;48.730;8.006;2023-03-22T14:37:11;99470.22;;;24.74;33.08
5522;BME280;2783;48.730;8.006;2023-03-22T14:39:38;99473.31;;;24.79;33.51
5522;BME280;2783;48.730;8.006;2023-03-22T14:44:42;99462.94;;;24.38;32.36
5522;BME280;2783;48.730;8.006;2023-03-22T14:49:39;99466.56;;;23.64;32.81
5522;BME280;2783;48.730;8.006;2023-03-22T14:52:05;99468.59;;;23.42;32.89
5522;BME280;2783;48.730;8.006;2023-03-22T14:54:30;99467.41;;;23.26;33.67
5522;BME280;2783;48.730;8.006;2023-03-22T14:56:58;99461.97;;;23.16;33.39
5522;BME280;2783;48.730;8.006;2023-03-22T14:59:25;99460.84;;;23.09;33.09